createdAt,value
2023-02-20T00:01:54.030Z,95656.56
2023-02-20T00:04:22.400Z,95659.12
2023-02-20T00:06:51.698Z,95654.06
2023-02-20T00:09:19.837Z,95659.54
2023-02-20T00:11:48.233Z,95659.05
2023-02-20T00:14:16.610Z,95657.17
2023-02-20T00:16:48.012Z,95659.83
2023-02-20T00:19:16.934Z,95663.06
2023-02-20T00:21:49.183Z,95662.67
2023-02-20T00:24:18.140Z,95668.68
2023-02-20T00:26:51.857Z,95677.59
2023-02-20T00:29:23.044Z,95682.61
2023-02-20T00:31:56.482Z,95682.89
2023-02-20T00:34:29.509Z,95686.73
2023-02-20T00:36:57.661Z,95689.42
2023-02-20T00:39:25.977Z,95696.52
2023-02-20T00:41:56.031Z,95702.96
2023-02-20T00:44:24.143Z,95701.86
2023-02-20T00:46:52.376Z,95705.66
2023-02-20T00:49:20.534Z,95712.08
2023-02-20T00:51:49.718Z,95713.67
2023-02-20T00:54:17.879Z,95718.73
2023-02-20T00:56:47.480Z,95724.08
2023-02-20T00:59:15.836Z,95719.89
2023-02-20T01:01:43.991Z,95720.36
2023-02-20T01:04:12.454Z,95728.13
2023-02-20T01:06:43.465Z,95732.05
2023-02-20T01:09:14.359Z,95726.16
2023-02-20T01:11:44.693Z,95727.33
2023-02-20T01:14:14.472Z,95731.71
2023-02-20T01:16:47.585Z,95739.02
2023-02-20T01:19:16.052Z,95745.05
2023-02-20T01:21:44.867Z,95747.84
2023-02-20T01:24:13.241Z,95748.21
2023-02-20T01:26:46.905Z,95749.61
2023-02-20T01:29:16.631Z,95753.66
2023-02-20T01:31:52.316Z,95749.27
2023-02-20T01:34:21.270Z,95754.05
2023-02-20T01:36:51.822Z,95758.26
2023-02-20T01:39:25.110Z,95756.83
2023-02-20T01:42:00.606Z,95760.17
2023-02-20T01:44:32.026Z,95759.77
2023-02-20T01:47:02.573Z,95757.77
2023-02-20T01:49:36.876Z,95756.77
2023-02-20T01:52:14.129Z,95750.71
2023-02-20T01:54:48.284Z,95751.25
2023-02-20T01:57:22.236Z,95751.60
2023-02-20T01:59:53.209Z,95744.31
2023-02-20T02:02:23.683Z,95748.83
2023-02-20T02:04:52.374Z,95743.58
2023-02-20T02:07:24.290Z,95735.69
2023-02-20T02:10:10.381Z,95746.27
2023-02-20T02:12:40.407Z,95749.05
2023-02-20T02:15:16.520Z,95749.43
2023-02-20T02:17:50.763Z,95746.05
2023-02-20T02:20:50.684Z,95744.25
2023-02-20T02:23:56.827Z,95744.16
2023-02-20T02:26:25.385Z,95743.13
2023-02-20T02:28:55.854Z,95750.23
2023-02-20T02:31:54.722Z,95749.52
2023-02-20T02:35:04.816Z,95754.08
2023-02-20T02:37:42.001Z,95748.39
2023-02-20T02:40:24.970Z,95750.06
2023-02-20T02:42:59.780Z,95755.41
2023-02-20T02:46:02.936Z,95752.86
2023-02-20T02:48:40.114Z,95750.05
2023-02-20T02:51:23.272Z,95761.15
2023-02-20T02:54:10.292Z,95765.67
2023-02-20T02:56:46.081Z,95764.09
2023-02-20T02:59:20.945Z,95764.20
2023-02-20T03:01:55.927Z,95768.30
2023-02-20T03:04:30.507Z,95772.84
2023-02-20T03:07:08.100Z,95781.06
2023-02-20T03:09:41.527Z,95785.23
2023-02-20T03:12:13.177Z,95791.45
2023-02-20T03:15:09.705Z,95796.15
2023-02-20T03:18:00.731Z,95800.59
2023-02-20T03:20:29.004Z,95801.45
2023-02-20T03:23:03.334Z,95805.31
2023-02-20T03:25:38.691Z,95809.41
2023-02-20T03:28:14.834Z,95810.85
2023-02-20T03:30:49.085Z,95816.11
2023-02-20T03:33:42.110Z,95819.23
2023-02-20T03:36:35.404Z,95820.33
2023-02-20T03:39:30.900Z,95820.63
2023-02-20T03:42:21.176Z,95820.70
2023-02-20T03:44:53.345Z,95822.02
2023-02-20T03:47:25.882Z,95827.55
2023-02-20T03:49:56.093Z,95836.73
2023-02-20T03:52:24.704Z,95838.27
2023-02-20T03:54:53.467Z,95841.89
2023-02-20T03:57:27.558Z,95838.61
2023-02-20T04:00:02.654Z,95837.46
2023-02-20T04:02:36.739Z,95840.34
2023-02-20T04:05:10.264Z,95843.89
2023-02-20T04:07:48.413Z,95845.52
2023-02-20T04:10:25.042Z,95850.59
2023-02-20T04:12:55.199Z,95854.84
2023-02-20T04:15:25.316Z,95863.95
2023-02-20T04:18:11.083Z,95851.90
2023-02-20T04:20:41.096Z,95852.82
2023-02-20T04:23:24.137Z,95853.12
2023-02-20T04:26:04.774Z,95850.52
2023-02-20T04:28:34.621Z,95855.09
2023-02-20T04:31:04.239Z,95845.14
2023-02-20T04:33:33.223Z,95847.95
2023-02-20T04:36:05.188Z,95851.68
2023-02-20T04:38:33.534Z,95852.52
2023-02-20T04:41:02.251Z,95849.20
2023-02-20T04:43:31.112Z,95850.69
2023-02-20T04:45:59.685Z,95853.88
2023-02-20T04:48:28.087Z,95859.80
2023-02-20T04:50:56.184Z,95857.50
2023-02-20T04:53:24.344Z,95858.52
2023-02-20T04:55:52.772Z,95856.21
2023-02-20T04:58:23.358Z,95862.34
2023-02-20T05:01:06.009Z,95871.75
2023-02-20T05:03:34.208Z,95878.80
2023-02-20T05:06:02.397Z,95870.63
2023-02-20T05:08:32.207Z,95871.42
2023-02-20T05:11:00.526Z,95869.50
2023-02-20T05:13:28.615Z,95870.65
2023-02-20T05:15:56.748Z,95880.25
2023-02-20T05:18:26.462Z,95881.65
2023-02-20T05:21:13.596Z,95883.55
2023-02-20T05:23:41.865Z,95889.34
2023-02-20T05:26:11.652Z,95892.23
2023-02-20T05:28:40.099Z,95885.67
2023-02-20T05:31:08.509Z,95891.46
2023-02-20T05:33:37.055Z,95897.32
2023-02-20T05:36:05.906Z,95904.11
2023-02-20T05:38:34.304Z,95910.05
2023-02-20T05:41:05.368Z,95908.41
2023-02-20T05:43:33.719Z,95910.05
2023-02-20T05:46:01.960Z,95908.69
2023-02-20T05:48:30.363Z,95906.52
2023-02-20T05:50:59.718Z,95914.80
2023-02-20T05:53:35.105Z,95915.53
2023-02-20T05:56:21.753Z,95923.17
2023-02-20T05:59:25.406Z,95927.17
2023-02-20T06:02:02.814Z,95921.48
2023-02-20T06:04:36.509Z,95932.81
2023-02-20T06:07:11.300Z,95934.03
2023-02-20T06:09:51.504Z,95938.95
2023-02-20T06:12:36.214Z,95949.64
2023-02-20T06:15:13.004Z,95956.30
2023-02-20T06:17:47.242Z,95957.44
2023-02-20T06:20:21.574Z,95958.06
2023-02-20T06:22:54.223Z,95966.14
2023-02-20T06:25:53.016Z,95966.98
2023-02-20T06:28:32.618Z,95968.45
2023-02-20T06:31:03.136Z,95963.17
2023-02-20T06:33:31.738Z,95973.35
2023-02-20T06:36:27.852Z,95973.93
2023-02-20T06:39:12.910Z,95971.86
2023-02-20T06:41:46.029Z,95974.89
2023-02-20T06:44:25.695Z,95974.14
2023-02-20T06:47:36.596Z,95968.75
2023-02-20T06:50:13.660Z,95958.27
2023-02-20T06:52:43.119Z,95955.89
2023-02-20T06:55:11.719Z,95954.76
2023-02-20T06:57:43.058Z,95949.64
2023-02-20T07:00:16.848Z,95941.52
2023-02-20T07:03:01.576Z,95942.59
2023-02-20T07:05:33.622Z,95946.05
2023-02-20T07:08:07.769Z,95955.80
2023-02-20T07:10:37.038Z,95963.25
2023-02-20T07:13:06.494Z,95959.59
2023-02-20T07:15:36.111Z,95957.16
2023-02-20T07:18:06.007Z,95962.63
2023-02-20T07:20:34.375Z,95957.55
2023-02-20T07:23:04.332Z,95951.21
2023-02-20T07:25:32.761Z,95950.77
2023-02-20T07:28:01.413Z,95954.65
2023-02-20T07:30:31.708Z,95959.73
2023-02-20T07:33:01.135Z,95959.17
2023-02-20T07:35:33.124Z,95953.78
2023-02-20T07:38:05.952Z,95954.86
2023-02-20T07:40:34.269Z,95958.70
2023-02-20T07:43:05.795Z,95956.17
2023-02-20T07:45:43.421Z,95964.89
2023-02-20T07:48:18.170Z,95967.46
2023-02-20T07:51:00.621Z,95972.62
2023-02-20T07:53:33.581Z,95968.63
2023-02-20T07:56:17.146Z,95968.75
2023-02-20T07:58:48.777Z,95962.65
2023-02-20T08:01:18.668Z,95958.64
2023-02-20T08:04:05.405Z,95953.65
2023-02-20T08:06:38.790Z,95953.40
2023-02-20T08:09:14.473Z,95962.44
2023-02-20T08:11:44.519Z,95959.73
2023-02-20T08:14:14.840Z,95954.61
2023-02-20T08:16:51.618Z,95947.38
2023-02-20T08:19:20.857Z,95941.27
2023-02-20T08:21:50.626Z,95940.48
2023-02-20T08:24:19.197Z,95943.39
2023-02-20T08:26:50.562Z,95944.07
2023-02-20T08:29:19.135Z,95942.63
2023-02-20T08:31:51.716Z,95946.16
2023-02-20T08:34:20.919Z,95947.83
2023-02-20T08:36:49.141Z,95948.35
2023-02-20T08:39:17.722Z,95945.00
2023-02-20T08:41:46.746Z,95941.44
2023-02-20T08:44:17.871Z,95940.86
2023-02-20T08:46:48.064Z,95939.77
2023-02-20T08:49:18.267Z,95944.09
2023-02-20T08:51:48.999Z,95940.07
2023-02-20T08:54:18.682Z,95936.73
2023-02-20T08:56:47.764Z,95934.70
2023-02-20T08:59:16.149Z,95942.34
2023-02-20T09:01:44.448Z,95939.69
2023-02-20T09:04:15.875Z,95933.61
2023-02-20T09:06:44.069Z,95930.48
2023-02-20T09:09:14.028Z,95924.77
2023-02-20T09:11:52.245Z,95926.81
2023-02-20T09:14:29.097Z,95920.84
2023-02-20T09:17:02.202Z,95917.98
2023-02-20T09:19:33.446Z,95917.02
2023-02-20T09:22:02.913Z,95916.29
2023-02-20T09:24:42.546Z,95923.04
2023-02-20T09:27:12.598Z,95923.13
2023-02-20T09:29:44.582Z,95921.81
2023-02-20T09:32:15.211Z,95911.98
2023-02-20T09:34:45.449Z,95909.89
2023-02-20T09:37:17.666Z,95905.17
2023-02-20T09:39:49.180Z,95900.73
2023-02-20T09:42:27.522Z,95895.98
2023-02-20T09:45:14.074Z,95892.88
2023-02-20T09:48:04.626Z,95884.14
2023-02-20T09:50:48.691Z,95876.70
2023-02-20T09:53:36.261Z,95874.52
2023-02-20T09:56:10.933Z,95861.77
2023-02-20T09:59:06.157Z,95849.73
2023-02-20T10:01:39.518Z,95843.00
2023-02-20T10:04:16.983Z,95831.91
2023-02-20T10:06:46.924Z,95825.02
2023-02-20T10:09:26.355Z,95819.91
2023-02-20T10:12:28.324Z,95811.98
2023-02-20T10:15:06.120Z,95817.25
2023-02-20T10:17:48.293Z,95819.07
2023-02-20T10:20:48.784Z,95817.64
2023-02-20T10:23:49.373Z,95823.23
2023-02-20T10:26:46.297Z,95826.23
2023-02-20T10:29:20.155Z,95823.32
2023-02-20T10:32:08.027Z,95821.54
2023-02-20T10:34:47.833Z,95809.88
2023-02-20T10:37:33.480Z,95795.26
2023-02-20T10:40:19.445Z,95790.39
2023-02-20T10:43:21.079Z,95779.13
2023-02-20T10:46:07.766Z,95772.45
2023-02-20T10:48:40.376Z,95771.60
2023-02-20T10:51:28.442Z,95770.94
2023-02-20T10:54:13.509Z,95771.92
2023-02-20T10:56:45.414Z,95766.54
2023-02-20T10:59:23.060Z,95763.18
2023-02-20T11:01:58.593Z,95757.91
2023-02-20T11:04:35.479Z,95745.70
2023-02-20T11:07:16.076Z,95745.59
2023-02-20T11:09:44.409Z,95747.66
2023-02-20T11:12:41.756Z,95752.08
2023-02-20T11:15:15.332Z,95740.11
2023-02-20T11:17:45.261Z,95732.74
2023-02-20T11:20:33.022Z,95729.02
2023-02-20T11:23:02.946Z,95719.48
2023-02-20T11:25:38.127Z,95713.09
2023-02-20T11:28:21.063Z,95717.03
2023-02-20T11:31:03.735Z,95716.71
2023-02-20T11:33:36.344Z,95722.79
2023-02-20T11:36:22.968Z,95725.72
2023-02-20T11:39:16.484Z,95711.98
2023-02-20T11:41:51.307Z,95713.23
2023-02-20T11:44:25.368Z,95719.45
2023-02-20T11:47:24.236Z,95728.11
2023-02-20T11:50:21.562Z,95731.89
2023-02-20T11:52:57.870Z,95735.12
2023-02-20T11:55:27.792Z,95731.32
2023-02-20T11:57:56.912Z,95729.48
2023-02-20T12:00:43.282Z,95725.11
2023-02-20T12:03:21.377Z,95737.06
2023-02-20T12:05:50.486Z,95737.92
2023-02-20T12:08:40.510Z,95744.45
2023-02-20T12:11:16.587Z,95746.34
2023-02-20T12:13:58.817Z,95748.28
2023-02-20T12:17:11.209Z,95745.69
2023-02-20T12:19:54.438Z,95744.38
2023-02-20T12:22:33.759Z,95743.25
2023-02-20T12:25:38.309Z,95742.58
2023-02-20T12:28:33.479Z,95734.39
2023-02-20T12:31:42.778Z,95724.27
2023-02-20T12:34:14.823Z,95717.59
2023-02-20T12:37:09.174Z,95715.34
2023-02-20T12:40:02.735Z,95717.45
2023-02-20T12:42:37.286Z,95702.67
2023-02-20T12:45:29.713Z,95700.50
2023-02-20T12:48:39.089Z,95684.10
2023-02-20T12:51:14.411Z,95675.41
2023-02-20T12:53:48.849Z,95673.30
2023-02-20T12:56:16.943Z,95668.33
2023-02-20T12:58:45.536Z,95672.77
2023-02-20T13:01:17.505Z,95666.23
2023-02-20T13:04:11.845Z,95668.48
2023-02-20T13:07:01.355Z,95669.21
2023-02-20T13:09:38.966Z,95676.05
2023-02-20T13:12:14.500Z,95669.00
2023-02-20T13:15:00.077Z,95667.15
2023-02-20T13:17:43.533Z,95660.69
2023-02-20T13:20:25.500Z,95656.41
2023-02-20T13:23:05.944Z,95661.52
2023-02-20T13:25:34.044Z,95661.34
2023-02-20T13:28:22.770Z,95663.02
2023-02-20T13:31:12.473Z,95654.25
2023-02-20T13:33:43.576Z,95639.16
2023-02-20T13:36:19.423Z,95638.16
2023-02-20T13:39:19.390Z,95636.15
2023-02-20T13:42:04.558Z,95649.56
2023-02-20T13:44:47.307Z,95649.38
2023-02-20T13:47:27.762Z,95645.15
2023-02-20T13:50:00.093Z,95636.67
2023-02-20T13:52:44.117Z,95639.96
2023-02-20T13:55:21.034Z,95638.87
2023-02-20T13:57:59.645Z,95642.64
2023-02-20T14:00:37.160Z,95644.09
2023-02-20T14:03:24.931Z,95639.29
2023-02-20T14:06:05.731Z,95629.52
2023-02-20T14:08:36.025Z,95625.05
2023-02-20T14:11:13.196Z,95615.60
2023-02-20T14:13:46.777Z,95618.85
2023-02-20T14:16:38.318Z,95621.27
2023-02-20T14:19:15.097Z,95620.85
2023-02-20T14:21:43.161Z,95622.88
2023-02-20T14:24:27.602Z,95627.58
2023-02-20T14:26:57.165Z,95625.97
2023-02-20T14:29:28.441Z,95626.31
2023-02-20T14:31:58.727Z,95619.67
2023-02-20T14:34:59.695Z,95617.48
2023-02-20T14:37:45.560Z,95614.96
2023-02-20T14:40:41.688Z,95624.53
2023-02-20T14:43:19.948Z,95628.56
2023-02-20T14:46:06.590Z,95613.27
2023-02-20T14:48:41.058Z,95611.58
2023-02-20T14:51:23.201Z,95618.80
2023-02-20T14:54:01.058Z,95623.30
2023-02-20T14:56:33.967Z,95618.54
2023-02-20T14:59:33.283Z,95615.90
2023-02-20T15:02:33.385Z,95617.16
2023-02-20T15:05:08.158Z,95612.84
2023-02-20T15:07:39.977Z,95621.84
2023-02-20T15:10:46.319Z,95622.93
2023-02-20T15:13:18.510Z,95629.70
2023-02-20T15:15:51.069Z,95628.14
2023-02-20T15:18:40.613Z,95631.39
2023-02-20T15:21:11.746Z,95628.71
2023-02-20T15:23:42.910Z,95628.08
2023-02-20T15:26:34.650Z,95619.23
2023-02-20T15:29:27.125Z,95605.52
2023-02-20T15:32:00.850Z,95594.20
2023-02-20T15:34:34.327Z,95593.27
2023-02-20T15:37:22.807Z,95588.98
2023-02-20T15:39:56.212Z,95583.96
2023-02-20T15:42:25.304Z,95580.80
2023-02-20T15:44:54.250Z,95573.75
2023-02-20T15:47:22.408Z,95571.79
2023-02-20T15:49:50.568Z,95566.01
2023-02-20T15:52:20.043Z,95572.33
2023-02-20T15:54:54.080Z,95570.30
2023-02-20T15:57:23.091Z,95568.70
2023-02-20T15:59:51.304Z,95567.14
2023-02-20T16:02:23.163Z,95573.45
2023-02-20T16:04:52.477Z,95580.96
2023-02-20T16:07:22.514Z,95582.11
2023-02-20T16:09:50.643Z,95574.32
2023-02-20T16:12:28.206Z,95561.80
2023-02-20T16:14:57.628Z,95541.88
2023-02-20T16:17:28.155Z,95531.67
2023-02-20T16:19:56.258Z,95518.79
2023-02-20T16:22:24.504Z,95508.91
2023-02-20T16:24:52.744Z,95500.86
2023-02-20T16:27:25.208Z,95499.42
2023-02-20T16:29:55.854Z,95497.96
2023-02-20T16:32:28.553Z,95494.81
2023-02-20T16:35:00.141Z,95502.92
2023-02-20T16:37:29.291Z,95503.62
2023-02-20T16:39:57.529Z,95502.48
2023-02-20T16:42:34.140Z,95487.42
2023-02-20T16:45:15.462Z,95474.57
2023-02-20T16:47:43.774Z,95473.42
2023-02-20T16:50:20.139Z,95472.31
2023-02-20T16:52:51.149Z,95479.08
2023-02-20T16:55:36.582Z,95470.38
2023-02-20T16:58:06.033Z,95446.80
2023-02-20T17:00:47.803Z,95458.29
2023-02-20T17:03:24.311Z,95463.50
2023-02-20T17:05:59.392Z,95457.17
2023-02-20T17:08:27.917Z,95464.68
2023-02-20T17:10:56.516Z,95479.95
2023-02-20T17:13:24.820Z,95489.59
2023-02-20T17:15:53.041Z,95498.76
2023-02-20T17:18:21.134Z,95507.73
2023-02-20T17:20:49.515Z,95489.27
2023-02-20T17:23:17.657Z,95492.29
2023-02-20T17:25:45.768Z,95484.54
2023-02-20T17:28:16.096Z,95477.36
2023-02-20T17:30:44.340Z,95472.68
2023-02-20T17:33:12.570Z,95468.70
2023-02-20T17:35:41.371Z,95468.48
2023-02-20T17:38:09.564Z,95474.61
2023-02-20T17:40:38.267Z,95466.95
2023-02-20T17:43:06.583Z,95454.77
2023-02-20T17:45:34.724Z,95444.07
2023-02-20T17:48:05.505Z,95448.63
2023-02-20T17:50:33.696Z,95447.15
2023-02-20T17:53:02.026Z,95449.11
2023-02-20T17:55:30.138Z,95448.96
2023-02-20T17:57:58.381Z,95443.81
2023-02-20T18:00:26.632Z,95439.20
2023-02-20T18:02:57.227Z,95432.57
2023-02-20T18:05:25.403Z,95429.95
2023-02-20T18:07:53.458Z,95424.42
2023-02-20T18:10:21.686Z,95410.30
2023-02-20T18:13:02.788Z,95397.88
2023-02-20T18:15:33.312Z,95389.52
2023-02-20T18:18:02.822Z,95382.29
2023-02-20T18:20:31.099Z,95377.52
2023-02-20T18:22:59.833Z,95366.76
2023-02-20T18:25:39.615Z,95360.67
2023-02-20T18:28:10.074Z,95353.86
2023-02-20T18:30:39.654Z,95354.19
2023-02-20T18:33:08.646Z,95353.10
2023-02-20T18:35:36.967Z,95351.40
2023-02-20T18:38:05.619Z,95345.80
2023-02-20T18:40:33.803Z,95348.23
2023-02-20T18:43:01.993Z,95346.50
2023-02-20T18:45:30.202Z,95342.58
2023-02-20T18:47:58.357Z,95342.56
2023-02-20T18:50:26.489Z,95341.27
2023-02-20T18:52:57.458Z,95334.61
2023-02-20T18:55:25.645Z,95338.36
2023-02-20T18:57:53.969Z,95335.28
2023-02-20T19:00:25.020Z,95337.91
2023-02-20T19:03:01.604Z,95342.09
2023-02-20T19:05:29.921Z,95338.16
2023-02-20T19:07:59.000Z,95333.92
2023-02-20T19:10:27.899Z,95331.86
2023-02-20T19:12:56.569Z,95320.02
2023-02-20T19:15:25.296Z,95323.96
2023-02-20T19:17:55.154Z,95322.44
2023-02-20T19:20:30.807Z,95318.14
2023-02-20T19:22:59.279Z,95308.56
2023-02-20T19:25:27.573Z,95312.21
2023-02-20T19:27:55.810Z,95303.39
2023-02-20T19:30:24.025Z,95295.96
2023-02-20T19:32:52.288Z,95292.76
2023-02-20T19:35:20.821Z,95287.14
2023-02-20T19:37:49.005Z,95284.52
2023-02-20T19:40:17.431Z,95277.77
2023-02-20T19:42:45.624Z,95270.89
2023-02-20T19:45:14.064Z,95276.04
2023-02-20T19:47:42.231Z,95277.39
2023-02-20T19:50:10.840Z,95277.52
2023-02-20T19:52:42.482Z,95281.73
2023-02-20T19:55:18.035Z,95286.67
2023-02-20T19:57:46.415Z,95284.04
2023-02-20T20:00:19.480Z,95272.79
2023-02-20T20:02:48.231Z,95267.05
2023-02-20T20:05:17.250Z,95264.84
2023-02-20T20:07:45.503Z,95260.47
2023-02-20T20:10:13.705Z,95260.97
2023-02-20T20:12:48.190Z,95263.27
2023-02-20T20:15:18.566Z,95257.39
2023-02-20T20:17:48.286Z,95249.79
2023-02-20T20:20:19.174Z,95241.57
2023-02-20T20:22:52.640Z,95238.03
2023-02-20T20:25:22.025Z,95228.79
2023-02-20T20:27:51.671Z,95232.20
2023-02-20T20:30:28.792Z,95236.66
2023-02-20T20:32:57.914Z,95238.13
2023-02-20T20:35:29.359Z,95225.35
2023-02-20T20:37:58.353Z,95231.20
2023-02-20T20:40:28.058Z,95239.82
2023-02-20T20:42:57.466Z,95231.13
2023-02-20T20:45:26.140Z,95213.55
2023-02-20T20:47:54.600Z,95205.68
2023-02-20T20:50:27.800Z,95210.61
2023-02-20T20:52:59.010Z,95201.93
2023-02-20T20:55:28.715Z,95200.07
2023-02-20T20:57:57.089Z,95201.91
2023-02-20T21:00:31.415Z,95203.48
2023-02-20T21:03:00.565Z,95209.57
2023-02-20T21:05:35.378Z,95222.09
2023-02-20T21:08:06.384Z,95234.04
2023-02-20T21:10:36.322Z,95221.95
2023-02-20T21:13:05.191Z,95212.87
2023-02-20T21:15:34.430Z,95222.27
2023-02-20T21:18:02.675Z,95216.13
2023-02-20T21:20:31.172Z,95214.23
2023-02-20T21:23:01.201Z,95206.54
2023-02-20T21:25:29.920Z,95211.05
2023-02-20T21:27:58.584Z,95204.90
2023-02-20T21:30:27.984Z,95203.67
2023-02-20T21:32:56.407Z,95211.41
2023-02-20T21:35:26.185Z,95218.59
2023-02-20T21:37:54.500Z,95212.84
2023-02-20T21:40:22.570Z,95225.64
2023-02-20T21:43:09.159Z,95222.77
2023-02-20T21:45:37.295Z,95217.06
2023-02-20T21:48:05.969Z,95218.02
2023-02-20T21:50:34.322Z,95207.95
2023-02-20T21:53:02.448Z,95203.83
2023-02-20T21:55:30.721Z,95199.91
2023-02-20T21:57:58.754Z,95195.05
2023-02-20T22:00:26.767Z,95197.39
2023-02-20T22:02:54.855Z,95204.00
2023-02-20T22:05:22.861Z,95207.02
2023-02-20T22:08:09.678Z,95203.98
2023-02-20T22:10:56.410Z,95192.89
2023-02-20T22:13:43.225Z,95189.77
2023-02-20T22:16:30.041Z,95179.56
2023-02-20T22:19:16.965Z,95183.58
2023-02-20T22:22:03.841Z,95177.22
2023-02-20T22:24:53.040Z,95181.86
2023-02-20T22:27:40.115Z,95176.69
2023-02-20T22:30:27.483Z,95179.15
2023-02-20T22:33:14.178Z,95171.17
2023-02-20T22:36:01.244Z,95160.16
2023-02-20T22:38:47.733Z,95154.98
2023-02-20T22:41:39.143Z,95149.09
2023-02-20T22:44:26.105Z,95141.69
2023-02-20T22:47:12.981Z,95135.36
2023-02-20T22:49:59.619Z,95133.59
2023-02-20T22:52:46.435Z,95135.11
2023-02-20T22:55:33.221Z,95132.30
2023-02-20T22:58:19.981Z,95115.63
2023-02-20T23:01:06.732Z,95107.78
2023-02-20T23:03:53.626Z,95106.60
2023-02-20T23:06:40.761Z,95113.41
2023-02-20T23:09:28.793Z,95108.45
2023-02-20T23:12:15.989Z,95103.45
2023-02-20T23:15:03.425Z,95088.90
2023-02-20T23:17:50.498Z,95091.58
2023-02-20T23:20:40.566Z,95086.02
2023-02-20T23:23:27.867Z,95089.34
2023-02-20T23:26:14.983Z,95079.66
2023-02-20T23:29:02.218Z,95075.83
2023-02-20T23:31:57.855Z,95080.73
2023-02-20T23:34:46.191Z,95074.02
2023-02-20T23:37:33.587Z,95069.80
2023-02-20T23:40:27.310Z,95060.82
2023-02-20T23:43:27.107Z,95060.98
2023-02-20T23:46:14.322Z,95050.33
2023-02-20T23:49:01.453Z,95050.53
2023-02-20T23:51:50.722Z,95042.35
2023-02-20T23:54:38.364Z,95041.30
2023-02-20T23:57:25.000Z,95032.88
